createdAt,value
2018-04-13T00:00:02.470Z,14.50
2018-04-13T00:02:30.688Z,14.20
2018-04-13T00:04:58.132Z,14.20
2018-04-13T00:07:25.591Z,14.10
2018-04-13T00:09:53.118Z,14.00
2018-04-13T00:12:20.550Z,13.90
2018-04-13T00:14:47.996Z,13.80
2018-04-13T00:17:15.447Z,13.80
2018-04-13T00:19:42.888Z,13.70
2018-04-13T00:22:10.352Z,13.40
2018-04-13T00:24:37.799Z,13.20
2018-04-13T00:27:05.243Z,13.20
2018-04-13T00:29:32.690Z,13.10
2018-04-13T00:32:00.152Z,13.20
2018-04-13T00:34:27.610Z,13.10
2018-04-13T00:36:55.054Z,13.10
2018-04-13T00:39:22.490Z,13.00
2018-04-13T00:41:50.716Z,12.60
2018-04-13T00:44:18.170Z,12.30
2018-04-13T00:46:45.631Z,12.40
2018-04-13T00:49:13.088Z,12.40
2018-04-13T00:51:40.549Z,12.40
2018-04-13T00:54:08.027Z,12.50
2018-04-13T00:56:35.469Z,12.40
2018-04-13T00:59:02.932Z,12.40
2018-04-13T01:01:30.375Z,12.30
2018-04-13T01:03:57.833Z,12.30
2018-04-13T01:06:25.297Z,12.30
2018-04-13T01:08:52.752Z,12.20
2018-04-13T01:11:20.213Z,12.10
2018-04-13T01:13:47.673Z,12.10
2018-04-13T01:16:15.123Z,11.90
2018-04-13T01:18:42.588Z,11.80
2018-04-13T01:21:10.026Z,11.60
2018-04-13T01:23:37.480Z,11.50
2018-04-13T01:26:04.917Z,11.50
2018-04-13T01:28:32.387Z,11.50
2018-04-13T01:30:59.845Z,11.30
2018-04-13T01:33:27.287Z,11.20
2018-04-13T01:35:54.742Z,11.20
2018-04-13T01:38:22.204Z,11.20
2018-04-13T01:40:49.654Z,11.40
2018-04-13T01:43:17.612Z,11.40
2018-04-13T01:45:45.093Z,11.30
2018-04-13T01:48:13.275Z,11.30
2018-04-13T01:50:40.735Z,11.50
2018-04-13T01:53:08.959Z,11.50
2018-04-13T01:55:36.416Z,11.40
2018-04-13T01:58:03.877Z,11.40
2018-04-13T02:00:31.333Z,11.40
2018-04-13T02:02:58.784Z,11.40
2018-04-13T02:05:26.240Z,11.40
2018-04-13T02:07:53.677Z,11.50
2018-04-13T02:10:21.908Z,11.50
2018-04-13T02:12:49.351Z,11.50
2018-04-13T02:15:16.800Z,11.50
2018-04-13T02:17:44.244Z,11.30
2018-04-13T02:20:11.697Z,11.20
2018-04-13T02:22:39.140Z,11.20
2018-04-13T02:25:07.350Z,11.10
2018-04-13T02:27:34.815Z,11.00
2018-04-13T02:30:02.298Z,11.00
2018-04-13T02:32:29.750Z,11.00
2018-04-13T02:34:57.191Z,11.10
2018-04-13T02:37:24.641Z,11.10
2018-04-13T02:39:52.088Z,11.20
2018-04-13T02:42:19.552Z,11.20
2018-04-13T02:44:47.001Z,11.40
2018-04-13T02:47:15.234Z,11.20
2018-04-13T02:49:42.677Z,11.30
2018-04-13T02:52:10.135Z,11.20
2018-04-13T02:54:37.610Z,11.30
2018-04-13T02:57:05.065Z,11.30
2018-04-13T02:59:33.284Z,11.30
2018-04-13T03:02:00.722Z,11.30
2018-04-13T03:04:28.170Z,11.40
2018-04-13T03:06:55.622Z,11.40
2018-04-13T03:09:23.834Z,11.30
2018-04-13T03:11:51.297Z,11.30
2018-04-13T03:14:18.751Z,11.20
2018-04-13T03:16:46.209Z,11.10
2018-04-13T03:19:13.667Z,11.10
2018-04-13T03:21:41.115Z,11.00
2018-04-13T03:24:08.567Z,11.10
2018-04-13T03:26:36.012Z,11.10
2018-04-13T03:29:03.470Z,11.00
2018-04-13T03:31:30.935Z,11.00
2018-04-13T03:33:58.383Z,11.00
2018-04-13T03:36:25.821Z,11.20
2018-04-13T03:38:53.280Z,11.10
2018-04-13T03:41:20.734Z,11.20
2018-04-13T03:43:48.507Z,11.20
2018-04-13T03:46:16.023Z,11.20
2018-04-13T03:48:43.448Z,11.20
2018-04-13T03:51:10.907Z,11.20
2018-04-13T03:53:38.367Z,11.10
2018-04-13T03:56:05.838Z,11.10
2018-04-13T03:58:33.288Z,11.00
2018-04-13T04:01:00.735Z,11.10
2018-04-13T04:03:28.203Z,11.00
2018-04-13T04:05:55.650Z,10.90
2018-04-13T04:08:23.108Z,10.90
2018-04-13T04:10:50.555Z,10.70
2018-04-13T04:13:18.681Z,10.70
2018-04-13T04:15:46.893Z,10.60
2018-04-13T04:18:14.355Z,10.60
2018-04-13T04:20:53.875Z,10.60
2018-04-13T04:23:33.298Z,10.40
2018-04-13T04:26:13.358Z,10.10
2018-04-13T04:28:40.805Z,10.00
2018-04-13T04:31:08.246Z,10.10
2018-04-13T04:33:36.479Z,10.30
2018-04-13T04:36:03.942Z,10.20
2018-04-13T04:38:31.385Z,10.20
2018-04-13T04:40:58.838Z,10.30
2018-04-13T04:43:26.300Z,10.30
2018-04-13T04:45:53.741Z,10.30
2018-04-13T04:48:21.206Z,10.30
2018-04-13T04:50:48.661Z,10.30
2018-04-13T04:53:16.117Z,10.10
2018-04-13T04:55:43.576Z,10.10
2018-04-13T04:58:11.827Z,10.10
2018-04-13T05:00:39.284Z,10.10
2018-04-13T05:03:07.512Z,10.10
2018-04-13T05:05:34.963Z,10.10
2018-04-13T05:08:02.407Z,10.10
2018-04-13T05:10:29.867Z,10.20
2018-04-13T05:12:57.329Z,10.30
2018-04-13T05:15:24.779Z,10.50
2018-04-13T05:17:52.233Z,10.50
2018-04-13T05:20:19.677Z,10.60
2018-04-13T05:22:47.133Z,10.80
2018-04-13T05:25:14.585Z,10.90
2018-04-13T05:27:42.040Z,11.10
2018-04-13T05:30:09.498Z,11.20
2018-04-13T05:32:36.949Z,11.40
2018-04-13T05:35:04.401Z,11.50
2018-04-13T05:37:31.851Z,11.70
2018-04-13T05:40:00.076Z,12.00
2018-04-13T05:42:27.526Z,12.00
2018-04-13T05:44:54.969Z,12.20
2018-04-13T05:47:22.423Z,12.40
2018-04-13T05:49:49.879Z,12.50
2018-04-13T05:52:17.392Z,12.60
2018-04-13T05:54:44.830Z,12.80
2018-04-13T05:57:12.271Z,12.90
2018-04-13T05:59:39.709Z,13.10
2018-04-13T06:02:07.151Z,13.20
2018-04-13T06:04:34.686Z,13.30
2018-04-13T06:07:02.895Z,13.40
2018-04-13T06:09:30.343Z,13.30
2018-04-13T06:11:57.795Z,13.40
2018-04-13T06:14:25.235Z,13.50
2018-04-13T06:16:53.437Z,13.60
2018-04-13T06:19:20.910Z,13.60
2018-04-13T06:21:48.354Z,13.80
2018-04-13T06:24:15.820Z,13.90
2018-04-13T06:26:43.251Z,14.10
2018-04-13T06:29:10.699Z,14.20
2018-04-13T06:31:38.147Z,14.30
2018-04-13T06:34:06.359Z,14.20
2018-04-13T06:36:33.798Z,14.10
2018-04-13T06:39:01.250Z,14.10
2018-04-13T06:41:28.704Z,14.30
2018-04-13T06:43:56.918Z,14.20
2018-04-13T06:46:24.345Z,14.10
2018-04-13T06:48:51.856Z,14.20
2018-04-13T06:51:19.227Z,14.40
2018-04-13T06:53:47.443Z,14.70
2018-04-13T06:56:14.883Z,14.60
2018-04-13T06:58:42.361Z,15.10
2018-04-13T07:01:09.843Z,15.60
2018-04-13T07:03:37.248Z,15.90
2018-04-13T07:06:04.686Z,16.10
2018-04-13T07:08:32.893Z,16.50
2018-04-13T07:11:00.343Z,16.50
2018-04-13T07:13:27.787Z,16.70
2018-04-13T07:15:55.246Z,17.10
2018-04-13T07:18:22.698Z,17.30
2018-04-13T07:20:50.899Z,17.80
2018-04-13T07:23:18.890Z,17.70
2018-04-13T07:25:46.338Z,17.90
2018-04-13T07:28:13.784Z,17.90
2018-04-13T07:30:41.230Z,17.90
2018-04-13T07:33:08.678Z,17.90
2018-04-13T07:35:36.125Z,17.80
2018-04-13T07:38:04.351Z,17.40
2018-04-13T07:40:31.799Z,17.40
2018-04-13T07:42:59.244Z,17.40
2018-04-13T07:45:26.688Z,17.40
2018-04-13T07:47:54.132Z,17.30
2018-04-13T07:50:21.578Z,17.40
2018-04-13T07:52:49.796Z,17.20
2018-04-13T07:55:17.241Z,17.20
2018-04-13T07:57:44.994Z,17.30
2018-04-13T08:00:12.147Z,17.40
2018-04-13T08:02:39.610Z,17.50
2018-04-13T08:05:07.054Z,17.60
2018-04-13T08:07:34.755Z,17.60
2018-04-13T08:10:01.947Z,17.70
2018-04-13T08:12:30.152Z,18.10
2018-04-13T08:14:57.591Z,18.10
2018-04-13T08:17:25.030Z,18.40
2018-04-13T08:19:53.226Z,18.70
2018-04-13T08:22:20.680Z,18.70
2018-04-13T08:24:48.129Z,18.60
2018-04-13T08:27:15.566Z,18.70
2018-04-13T08:29:43.786Z,18.50
2018-04-13T08:32:11.233Z,18.50
2018-04-13T08:34:38.671Z,18.50
2018-04-13T08:37:06.116Z,18.10
2018-04-13T08:39:34.319Z,18.40
2018-04-13T08:42:01.784Z,18.40
2018-04-13T08:44:29.265Z,18.80
2018-04-13T08:46:56.698Z,18.90
2018-04-13T08:49:24.151Z,19.00
2018-04-13T08:51:51.602Z,19.10
2018-04-13T08:54:19.057Z,19.30
2018-04-13T08:56:46.498Z,19.40
2018-04-13T08:59:13.938Z,19.20
2018-04-13T09:01:42.154Z,19.00
2018-04-13T09:04:09.602Z,19.00
2018-04-13T09:06:37.093Z,19.00
2018-04-13T09:09:04.500Z,18.90
2018-04-13T09:11:31.930Z,18.80
2018-04-13T09:14:00.147Z,18.70
2018-04-13T09:16:27.617Z,18.70
2018-04-13T09:18:55.051Z,18.50
2018-04-13T09:21:22.481Z,18.40
2018-04-13T09:23:50.691Z,18.20
2018-04-13T09:26:18.136Z,18.20
2018-04-13T09:28:45.572Z,18.10
2018-04-13T09:31:13.783Z,18.00
2018-04-13T09:33:41.225Z,17.90
2018-04-13T09:36:08.680Z,17.90
2018-04-13T09:38:36.128Z,18.10
2018-04-13T09:41:03.567Z,18.10
2018-04-13T09:43:31.779Z,18.50
2018-04-13T09:45:59.229Z,18.40
2018-04-13T09:48:26.671Z,18.70
2018-04-13T09:50:54.101Z,18.80
2018-04-13T09:53:22.316Z,19.20
2018-04-13T09:55:49.762Z,19.10
2018-04-13T09:58:17.275Z,19.40
2018-04-13T10:00:44.724Z,19.70
2018-04-13T10:03:18.357Z,20.00
2018-04-13T10:05:45.791Z,20.10
2018-04-13T10:08:13.719Z,20.10
2018-04-13T10:10:41.149Z,20.20
2018-04-13T10:13:08.588Z,20.40
2018-04-13T10:15:36.803Z,20.50
2018-04-13T10:18:04.241Z,20.40
2018-04-13T10:20:31.687Z,20.60
2018-04-13T10:22:59.907Z,20.70
2018-04-13T10:25:27.345Z,20.60
2018-04-13T10:27:54.798Z,20.60
2018-04-13T10:30:22.671Z,20.50
2018-04-13T10:32:50.121Z,20.60
2018-04-13T10:35:17.568Z,20.70
2018-04-13T10:37:45.005Z,20.60
2018-04-13T10:40:13.208Z,20.50
2018-04-13T10:42:40.665Z,20.40
2018-04-13T10:45:08.115Z,20.60
2018-04-13T10:47:35.562Z,20.70
2018-04-13T10:50:03.012Z,20.70
2018-04-13T10:52:31.222Z,20.70
2018-04-13T10:54:58.660Z,20.70
2018-04-13T10:57:26.108Z,20.70
2018-04-13T10:59:54.316Z,20.60
2018-04-13T11:02:21.758Z,20.60
2018-04-13T11:04:49.217Z,20.60
2018-04-13T11:07:16.649Z,20.60
2018-04-13T11:09:44.101Z,20.70
2018-04-13T11:12:11.553Z,20.70
2018-04-13T11:14:39.757Z,20.60
2018-04-13T11:17:07.458Z,20.60
2018-04-13T11:19:34.907Z,20.60
2018-04-13T11:22:02.362Z,20.70
2018-04-13T11:24:29.813Z,21.00
2018-04-13T11:26:57.256Z,21.20
2018-04-13T11:29:24.708Z,21.50
2018-04-13T11:31:52.150Z,21.70
2018-04-13T11:34:19.592Z,21.70
2018-04-13T11:36:47.033Z,21.90
2018-04-13T11:39:15.237Z,21.80
2018-04-13T11:41:42.684Z,21.70
2018-04-13T11:44:10.122Z,21.70
2018-04-13T11:46:38.323Z,21.60
2018-04-13T11:49:05.767Z,21.50
2018-04-13T11:51:33.214Z,21.50
2018-04-13T11:54:01.442Z,21.50
2018-04-13T11:56:28.883Z,21.40
2018-04-13T11:58:56.337Z,21.30
2018-04-13T12:01:23.788Z,21.10
2018-04-13T12:03:51.228Z,21.00
2018-04-13T12:06:18.678Z,20.90
2018-04-13T12:08:46.870Z,20.40
2018-04-13T12:11:14.333Z,20.30
2018-04-13T12:13:41.774Z,20.20
2018-04-13T12:16:09.231Z,20.20
2018-04-13T12:18:36.674Z,20.20
2018-04-13T12:21:04.118Z,20.30
2018-04-13T12:23:32.336Z,20.30
2018-04-13T12:25:59.784Z,20.30
2018-04-13T12:28:27.228Z,20.40
2018-04-13T12:30:54.684Z,20.40
2018-04-13T12:33:22.123Z,20.10
2018-04-13T12:35:50.338Z,19.90
2018-04-13T12:38:17.808Z,19.90
2018-04-13T12:40:45.241Z,19.80
2018-04-13T12:43:12.682Z,19.70
2018-04-13T12:45:40.125Z,19.50
2018-04-13T12:48:08.350Z,19.20
2018-04-13T12:50:35.793Z,19.20
2018-04-13T12:53:03.265Z,19.20
2018-04-13T12:55:30.692Z,19.20
2018-04-13T12:57:58.871Z,19.30
2018-04-13T13:00:26.315Z,19.20
2018-04-13T13:02:53.773Z,19.00
2018-04-13T13:05:21.210Z,19.30
2018-04-13T13:07:49.469Z,19.20
2018-04-13T13:10:16.950Z,19.20
2018-04-13T13:12:45.163Z,18.70
2018-04-13T13:15:12.586Z,18.70
2018-04-13T13:17:40.037Z,18.50
2018-04-13T13:20:08.260Z,18.40
2018-04-13T13:22:35.707Z,18.30
2018-04-13T13:25:03.155Z,18.10
2018-04-13T13:27:30.596Z,17.60
2018-04-13T13:29:58.030Z,17.10
2018-04-13T13:32:26.250Z,16.20
2018-04-13T13:34:53.679Z,16.20
2018-04-13T13:37:21.138Z,16.10
2018-04-13T13:39:48.580Z,16.10
2018-04-13T13:42:16.967Z,16.30
2018-04-13T13:44:44.414Z,16.30
2018-04-13T13:47:12.615Z,16.00
2018-04-13T13:49:40.072Z,15.90
2018-04-13T13:52:07.510Z,16.00
2018-04-13T13:54:34.955Z,16.00
2018-04-13T13:57:03.166Z,15.70
2018-04-13T13:59:30.624Z,15.60
2018-04-13T14:01:58.069Z,15.40
2018-04-13T14:04:25.517Z,15.00
2018-04-13T14:06:52.950Z,15.00
2018-04-13T14:09:21.160Z,14.70
2018-04-13T14:11:48.603Z,14.60
2018-04-13T14:14:16.060Z,14.40
2018-04-13T14:16:43.490Z,14.40
2018-04-13T14:19:11.712Z,14.60
2018-04-13T14:21:39.160Z,14.50
2018-04-13T14:24:06.620Z,14.80
2018-04-13T14:26:34.058Z,14.90
2018-04-13T14:29:01.515Z,14.80
2018-04-13T14:31:29.001Z,14.80
2018-04-13T14:33:56.443Z,14.80
2018-04-13T14:36:23.887Z,14.90
2018-04-13T14:38:51.353Z,14.90
2018-04-13T14:41:18.781Z,15.00
2018-04-13T14:43:46.996Z,15.10
2018-04-13T14:46:14.449Z,15.00
2018-04-13T14:48:41.905Z,15.10
2018-04-13T14:51:09.352Z,15.00
2018-04-13T14:53:36.777Z,14.90
2018-04-13T14:56:04.986Z,14.70
2018-04-13T14:58:32.428Z,14.70
2018-04-13T15:00:59.951Z,14.70
2018-04-13T15:03:27.360Z,14.90
2018-04-13T15:05:54.809Z,15.20
2018-04-13T15:08:22.257Z,15.40
2018-04-13T15:10:49.697Z,15.50
2018-04-13T15:13:17.905Z,15.60
2018-04-13T15:15:45.373Z,15.60
2018-04-13T15:18:12.814Z,15.60
2018-04-13T15:20:40.278Z,15.70
2018-04-13T15:23:07.722Z,15.80
2018-04-13T15:25:35.182Z,15.90
2018-04-13T15:28:02.626Z,15.70
2018-04-13T15:30:30.077Z,15.40
2018-04-13T15:32:57.524Z,15.20
2018-04-13T15:35:25.751Z,15.10
2018-04-13T15:37:53.197Z,15.10
2018-04-13T15:40:20.701Z,15.20
2018-04-13T15:42:48.103Z,15.20
2018-04-13T15:45:15.550Z,15.20
2018-04-13T15:47:42.997Z,15.20
2018-04-13T15:50:10.437Z,15.30
2018-04-13T15:52:37.879Z,15.40
2018-04-13T15:55:05.328Z,15.50
2018-04-13T15:57:32.782Z,15.50
2018-04-13T16:00:00.236Z,15.40
2018-04-13T16:02:27.680Z,15.40
2018-04-13T16:04:55.151Z,15.30
2018-04-13T16:07:22.588Z,15.30
2018-04-13T16:09:50.040Z,15.30
2018-04-13T16:12:17.487Z,15.20
2018-04-13T16:14:44.935Z,15.10
2018-04-13T16:17:12.491Z,15.20
2018-04-13T16:19:39.943Z,15.00
2018-04-13T16:22:07.390Z,15.10
2018-04-13T16:24:34.830Z,15.20
2018-04-13T16:27:03.052Z,15.20
2018-04-13T16:29:30.501Z,15.10
2018-04-13T16:31:57.954Z,15.10
2018-04-13T16:34:25.420Z,15.10
2018-04-13T16:36:52.864Z,14.90
2018-04-13T16:39:20.304Z,14.80
2018-04-13T16:41:47.742Z,14.80
2018-04-13T16:44:15.949Z,14.90
2018-04-13T16:46:43.402Z,14.80
2018-04-13T16:49:10.849Z,14.70
2018-04-13T16:51:38.292Z,14.90
2018-04-13T16:54:05.728Z,14.90
2018-04-13T16:56:33.944Z,15.10
2018-04-13T16:59:01.404Z,15.10
2018-04-13T17:01:28.849Z,15.10
2018-04-13T17:03:56.293Z,15.10
2018-04-13T17:06:24.499Z,15.10
2018-04-13T17:08:52.722Z,15.10
2018-04-13T17:11:20.167Z,15.10
2018-04-13T17:13:47.633Z,15.10
2018-04-13T17:16:15.864Z,15.10
2018-04-13T17:18:43.306Z,15.10
2018-04-13T17:21:10.770Z,15.10
2018-04-13T17:23:38.200Z,15.10
2018-04-13T17:26:05.648Z,15.00
2018-04-13T17:28:33.858Z,15.00
2018-04-13T17:31:01.299Z,14.90
2018-04-13T17:33:29.580Z,14.90
2018-04-13T17:35:57.022Z,14.80
2018-04-13T17:38:24.458Z,14.80
2018-04-13T17:40:52.684Z,14.60
2018-04-13T17:43:20.119Z,14.50
2018-04-13T17:45:47.573Z,14.50
2018-04-13T17:48:15.004Z,14.40
2018-04-13T17:50:43.214Z,14.20
2018-04-13T17:53:10.654Z,14.20
2018-04-13T17:55:38.093Z,14.10
2018-04-13T17:58:06.299Z,14.00
2018-04-13T18:00:33.761Z,14.00
2018-04-13T18:03:01.206Z,14.00
2018-04-13T18:05:28.671Z,13.90
2018-04-13T18:07:56.123Z,13.90
2018-04-13T18:10:23.590Z,13.80
2018-04-13T18:12:51.067Z,13.40
2018-04-13T18:15:18.519Z,13.40
2018-04-13T18:17:45.965Z,13.40
2018-04-13T18:20:13.408Z,13.20
2018-04-13T18:22:40.865Z,13.30
2018-04-13T18:25:08.311Z,13.30
2018-04-13T18:27:35.757Z,13.30
2018-04-13T18:30:03.203Z,13.30
2018-04-13T18:32:31.405Z,13.10
2018-04-13T18:34:58.850Z,13.00
2018-04-13T18:37:26.288Z,12.90
2018-04-13T18:39:54.520Z,12.80
2018-04-13T18:42:21.954Z,12.80
2018-04-13T18:44:49.390Z,12.70
2018-04-13T18:47:16.835Z,12.70
2018-04-13T18:49:45.042Z,12.60
2018-04-13T18:52:12.491Z,12.50
2018-04-13T18:54:39.945Z,12.60
2018-04-13T18:57:07.388Z,12.50
2018-04-13T18:59:34.847Z,12.50
2018-04-13T19:02:02.297Z,12.40
2018-04-13T19:04:30.127Z,12.40
2018-04-13T19:06:57.583Z,12.30
2018-04-13T19:09:25.060Z,12.20
2018-04-13T19:11:52.479Z,12.10
2018-04-13T19:14:19.932Z,12.10
2018-04-13T19:16:47.370Z,12.10
2018-04-13T19:19:14.836Z,12.30
2018-04-13T19:21:42.286Z,12.10
2018-04-13T19:24:09.732Z,12.10
2018-04-13T19:26:37.954Z,12.00
2018-04-13T19:29:05.406Z,11.90
2018-04-13T19:31:32.870Z,12.10
2018-04-13T19:34:00.321Z,12.20
2018-04-13T19:36:27.772Z,12.30
2018-04-13T19:38:55.215Z,12.20
2018-04-13T19:41:22.696Z,12.20
2018-04-13T19:43:50.114Z,12.10
2018-04-13T19:46:17.571Z,12.10
2018-04-13T19:48:45.015Z,12.10
2018-04-13T19:51:12.468Z,12.20
2018-04-13T19:53:39.909Z,12.00
2018-04-13T19:56:08.131Z,12.20
2018-04-13T19:58:35.582Z,12.10
2018-04-13T20:01:03.026Z,12.10
2018-04-13T20:03:30.470Z,12.10
2018-04-13T20:05:57.927Z,12.10
2018-04-13T20:08:25.367Z,12.00
2018-04-13T20:10:52.825Z,12.00
2018-04-13T20:13:20.269Z,12.00
2018-04-13T20:15:48.497Z,12.00
2018-04-13T20:18:18.846Z,11.90
2018-04-13T20:20:46.292Z,11.90
2018-04-13T20:23:13.750Z,11.80
2018-04-13T20:25:41.207Z,11.80
2018-04-13T20:28:08.669Z,11.70
2018-04-13T20:30:36.112Z,11.70
2018-04-13T20:33:04.347Z,11.50
2018-04-13T20:35:31.779Z,11.50
2018-04-13T20:38:00.007Z,11.50
2018-04-13T20:40:27.465Z,11.40
2018-04-13T20:42:54.928Z,11.50
2018-04-13T20:45:22.386Z,11.50
2018-04-13T20:47:49.841Z,11.60
2018-04-13T20:50:17.300Z,11.50
2018-04-13T20:52:44.757Z,11.50
2018-04-13T20:55:12.202Z,11.50
2018-04-13T20:57:39.663Z,11.40
2018-04-13T21:00:07.128Z,11.40
2018-04-13T21:02:34.582Z,11.30
2018-04-13T21:05:02.055Z,11.30
2018-04-13T21:07:29.546Z,11.20
2018-04-13T21:09:56.959Z,11.20
2018-04-13T21:12:24.415Z,11.00
2018-04-13T21:14:51.868Z,10.90
2018-04-13T21:17:19.334Z,10.90
2018-04-13T21:19:46.779Z,10.80
2018-04-13T21:22:14.237Z,10.80
2018-04-13T21:24:41.695Z,10.80
2018-04-13T21:27:09.142Z,10.80
2018-04-13T21:29:36.599Z,10.70
2018-04-13T21:32:04.051Z,10.60
2018-04-13T21:34:31.510Z,10.50
2018-04-13T21:36:58.951Z,10.40
2018-04-13T21:39:26.424Z,10.20
2018-04-13T21:41:53.864Z,10.10
2018-04-13T21:44:21.322Z,10.10
2018-04-13T21:46:48.787Z,10.10
2018-04-13T21:49:16.226Z,10.10
2018-04-13T21:51:43.681Z,10.10
2018-04-13T21:54:11.134Z,10.00
2018-04-13T21:56:38.595Z,10.10
2018-04-13T21:59:06.047Z,10.00
2018-04-13T22:01:33.511Z,9.90
2018-04-13T22:04:00.946Z,9.90
2018-04-13T22:06:28.405Z,9.80
2018-04-13T22:08:56.614Z,9.70
2018-04-13T22:11:24.063Z,9.60
2018-04-13T22:14:03.414Z,9.60
2018-04-13T22:16:30.851Z,9.60
2018-04-13T22:18:58.308Z,9.50
2018-04-13T22:21:25.748Z,9.50
2018-04-13T22:23:53.186Z,9.60
2018-04-13T22:26:21.402Z,9.40
2018-04-13T22:28:48.842Z,9.20
2018-04-13T22:31:16.283Z,9.30
2018-04-13T22:33:43.743Z,9.00
2018-04-13T22:36:11.187Z,8.80
2018-04-13T22:38:39.406Z,8.60
2018-04-13T22:41:06.854Z,8.50
2018-04-13T22:43:34.384Z,8.60
2018-04-13T22:46:02.584Z,8.60
2018-04-13T22:48:30.039Z,8.50
2018-04-13T22:50:57.482Z,8.60
2018-04-13T22:53:24.931Z,8.60
2018-04-13T22:55:52.375Z,8.60
2018-04-13T22:58:20.609Z,8.50
2018-04-13T23:00:48.038Z,8.40
2018-04-13T23:03:15.490Z,8.40
2018-04-13T23:05:42.947Z,8.30
2018-04-13T23:08:10.379Z,8.20
2018-04-13T23:10:38.584Z,8.20
2018-04-13T23:13:06.030Z,8.10
2018-04-13T23:15:33.478Z,8.30
2018-04-13T23:18:00.924Z,8.30
2018-04-13T23:20:29.135Z,8.30
2018-04-13T23:22:56.570Z,8.20
2018-04-13T23:25:24.026Z,8.30
2018-04-13T23:27:51.477Z,8.40
2018-04-13T23:30:18.918Z,8.40
2018-04-13T23:32:47.130Z,8.50
2018-04-13T23:35:14.578Z,8.50
2018-04-13T23:37:42.025Z,8.50
2018-04-13T23:40:09.483Z,8.30
2018-04-13T23:42:36.929Z,8.20
2018-04-13T23:45:05.176Z,7.80
2018-04-13T23:47:32.617Z,7.80
2018-04-13T23:50:00.063Z,7.70
2018-04-13T23:52:27.524Z,7.60
2018-04-13T23:54:54.994Z,7.60
2018-04-13T23:57:22.439Z,7.70
2018-04-13T23:59:49.892Z,7.70
